Time;durP1;ratioP1;P1;durP2;ratioP2;P2;SDS_P1;SDS_P2;PMS_P1;PMS_P2;Temp;Humidity;BMP_temperature;BMP_pressure;BME280_temperature;BME280_humidity;BME280_pressure;Samples;Min_cycle;Max_cycle;Signal;HPM_P1;HPM_P2
2021/03/15 00:02:09;;;;;;;6.33;5.40;;;3.20;84.80;;;;;;5060305;28;20950;-77
2021/03/15 00:04:36;;;;;;;7.27;5.30;;;3.20;84.80;;;;;;5067601;28;20484;-77
2021/03/15 00:07:02;;;;;;;7.07;5.30;;;3.30;84.10;;;;;;5070892;28;20963;-78
2021/03/15 00:09:28;;;;;;;6.50;5.07;;;3.30;84.50;;;;;;5071975;28;20455;-77
2021/03/15 00:11:55;;;;;;;9.83;5.90;;;3.30;84.10;;;;;;5063520;28;20488;-77
2021/03/15 00:14:23;;;;;;;6.50;5.73;;;3.30;83.90;;;;;;5069540;28;20447;-77
2021/03/15 00:16:52;;;;;;;6.03;4.97;;;3.30;83.80;;;;;;5065814;28;20445;-77
2021/03/15 00:19:18;;;;;;;8.30;5.20;;;3.30;84.20;;;;;;5061319;28;21010;-77
2021/03/15 00:21:45;;;;;;;5.37;4.80;;;3.30;83.30;;;;;;5070404;28;20536;-77
2021/03/15 00:24:12;;;;;;;6.87;5.30;;;3.30;83.00;;;;;;5077722;28;20471;-78
2021/03/15 00:26:38;;;;;;;5.70;5.20;;;3.30;83.30;;;;;;5076246;28;20447;-76
2021/03/15 00:29:05;;;;;;;10.83;4.90;;;3.30;83.10;;;;;;5064860;28;21414;-76
2021/03/15 00:31:32;;;;;;;5.10;4.50;;;3.30;82.50;;;;;;5057216;28;20457;-78
2021/03/15 00:33:58;;;;;;;6.90;4.70;;;3.30;82.70;;;;;;5064229;28;20480;-76
2021/03/15 00:36:25;;;;;;;5.90;4.37;;;3.30;82.30;;;;;;5063426;28;20556;-77
2021/03/15 00:38:51;;;;;;;5.60;4.30;;;3.30;82.80;;;;;;5063216;28;20481;-77
2021/03/15 00:41:17;;;;;;;7.50;4.03;;;3.30;82.20;;;;;;5072065;28;20484;-78
2021/03/15 00:43:44;;;;;;;4.73;4.00;;;3.30;81.00;;;;;;5059473;28;20502;-79
2021/03/15 00:46:10;;;;;;;4.63;4.13;;;3.30;81.30;;;;;;5065442;28;20471;-77
2021/03/15 00:48:37;;;;;;;5.17;3.60;;;3.30;80.90;;;;;;5061015;28;20469;-77
2021/03/15 00:51:05;;;;;;;7.03;3.90;;;3.30;80.80;;;;;;5066296;28;20569;-77
2021/03/15 00:53:31;;;;;;;8.77;4.00;;;3.40;81.00;;;;;;5064799;28;20483;-78
2021/03/15 00:55:57;;;;;;;5.23;4.10;;;3.40;81.50;;;;;;5070266;28;20448;-77
2021/03/15 00:58:24;;;;;;;4.63;4.03;;;3.50;81.10;;;;;;5076075;28;20444;-78
2021/03/15 01:00:50;;;;;;;5.90;4.27;;;3.50;80.80;;;;;;5072898;28;20474;-80
2021/03/15 01:03:17;;;;;;;6.50;3.90;;;3.40;80.80;;;;;;5069930;28;20540;-78
2021/03/15 01:05:47;;;;;;;4.63;4.13;;;3.40;81.00;;;;;;5075835;28;20568;-77
2021/03/15 01:08:14;;;;;;;8.03;4.73;;;3.40;80.90;;;;;;5063560;28;20440;-77
2021/03/15 01:10:42;;;;;;;7.23;4.43;;;3.30;80.90;;;;;;5078861;28;20461;-77
2021/03/15 01:13:10;;;;;;;5.50;4.57;;;3.30;81.60;;;;;;5062170;28;20493;-76
2021/03/15 01:18:11;;;;;;;6.07;5.10;;;3.30;81.70;;;;;;5091102;27;20901;-78
2021/03/15 01:20:39;;;;;;;5.93;5.30;;;3.30;82.20;;;;;;5091670;28;20480;-78
2021/03/15 01:23:05;;;;;;;7.60;5.10;;;3.40;82.10;;;;;;5091501;28;20472;-77
2021/03/15 01:25:32;;;;;;;7.17;5.17;;;;;;;;;;5093001;28;20443;-77
2021/03/15 01:27:59;;;;;;;6.03;5.40;;;3.40;82.20;;;;;;5098056;28;20452;-76
2021/03/15 01:30:30;;;;;;;8.17;6.13;;;3.40;82.70;;;;;;5098783;28;20966;-77
2021/03/15 01:32:57;;;;;;;12.27;5.87;;;3.40;82.40;;;;;;5102816;28;20451;-79
2021/03/15 01:35:25;;;;;;;7.37;5.83;;;3.40;83.00;;;;;;5096652;28;20455;-78
2021/03/15 01:37:52;;;;;;;12.03;7.30;;;3.40;82.80;;;;;;5085201;28;20490;-79
2021/03/15 01:40:21;;;;;;;8.10;6.70;;;3.40;82.60;;;;;;5098601;28;20446;-78
2021/03/15 01:42:47;;;;;;;8.47;6.83;;;3.40;83.50;;;;;;5093819;28;21340;-76
2021/03/15 01:45:14;;;;;;;7.60;6.67;;;3.40;83.10;;;;;;5087243;28;20891;-77
2021/03/15 01:47:42;;;;;;;12.23;7.93;;;3.30;83.70;;;;;;5085938;28;20554;-78
2021/03/15 01:50:11;;;;;;;10.37;7.90;;;3.20;84.20;;;;;;5092444;28;20451;-76
2021/03/15 01:52:39;;;;;;;10.07;7.70;;;3.10;85.10;;;;;;5099996;28;20440;-80
2021/03/15 01:55:08;;;;;;;9.53;8.30;;;3.10;85.90;;;;;;5101392;28;20452;-79
2021/03/15 01:57:36;;;;;;;10.13;7.90;;;3.00;86.90;;;;;;5106001;28;20470;-79
2021/03/15 02:00:04;;;;;;;13.13;9.60;;;3.00;88.00;;;;;;5107328;28;20519;-81
2021/03/15 02:02:30;;;;;;;9.50;8.27;;;2.90;88.70;;;;;;5097357;28;20993;-80
2021/03/15 02:04:57;;;;;;;10.60;9.50;;;2.90;89.10;;;;;;5076507;28;20513;-79
2021/03/15 02:07:24;;;;;;;15.37;9.57;;;2.90;89.10;;;;;;5091850;28;22491;-81
2021/03/15 02:09:52;;;;;;;10.30;8.80;;;2.80;90.20;;;;;;5098492;28;20459;-80
2021/03/15 02:12:40;;;;;;;13.23;9.37;;;2.70;90.70;;;;;;5109110;28;21136;-81
2021/03/15 02:15:15;;;;;;;10.80;9.03;;;2.70;91.10;;;;;;5110819;28;20980;-80
2021/03/15 02:17:52;;;;;;;13.30;10.03;;;2.70;91.20;;;;;;5078540;28;21107;-79
2021/03/15 02:23:00;;;;;;;12.03;10.73;;;2.70;91.30;;;;;;5037829;27;21362;-82
2021/03/15 02:25:58;;;;;;;14.07;10.77;;;2.70;91.30;;;;;;5030728;28;20860;-81
2021/03/15 02:28:43;;;;;;;12.63;10.00;;;2.80;91.30;;;;;;5025019;28;20458;-79
2021/03/15 02:31:57;;;;;;;12.37;10.50;;;2.80;91.50;;;;;;5026387;28;20960;-80
2021/03/15 02:34:50;;;;;;;16.63;10.50;;;2.80;91.00;;;;;;4969093;28;20460;-81
2021/03/15 02:37:20;;;;;;;13.57;10.10;;;2.90;91.10;;;;;;5015982;28;20459;-80
2021/03/15 02:39:51;;;;;;;13.10;10.20;;;3.00;90.90;;;;;;5028871;28;20538;-81
2021/03/15 02:42:20;;;;;;;11.97;10.67;;;3.00;90.70;;;;;;5018154;28;20511;-80
2021/03/15 02:44:50;;;;;;;12.37;9.77;;;3.00;90.40;;;;;;5020111;28;20496;-79
2021/03/15 02:47:21;;;;;;;12.10;10.10;;;3.20;90.00;;;;;;5015572;28;20501;-80
2021/03/15 02:49:50;;;;;;;13.47;10.17;;;3.20;90.20;;;;;;5019581;28;20465;-80
2021/03/15 02:52:18;;;;;;;12.60;10.40;;;3.10;89.10;;;;;;5012547;28;20491;-79
2021/03/15 02:54:46;;;;;;;13.43;10.50;;;3.20;89.30;;;;;;5027886;28;20449;-79
2021/03/15 02:57:17;;;;;;;12.83;10.00;;;3.20;88.80;;;;;;5021874;28;20544;-80
2021/03/15 02:59:46;;;;;;;12.20;10.83;;;3.20;88.80;;;;;;5032373;28;20488;-82
2021/03/15 03:02:15;;;;;;;10.80;9.10;;;3.20;88.60;;;;;;5026363;28;20471;-80
2021/03/15 03:04:44;;;;;;;13.57;10.10;;;3.20;88.60;;;;;;5023767;28;20482;-82
2021/03/15 03:07:12;;;;;;;11.40;9.40;;;3.30;89.40;;;;;;5043800;28;20998;-81
2021/03/15 03:09:39;;;;;;;10.83;9.73;;;3.30;88.20;;;;;;5050773;28;20451;-80
2021/03/15 03:12:09;;;;;;;12.77;9.57;;;3.30;87.60;;;;;;5037138;28;20534;-81
2021/03/15 03:14:36;;;;;;;14.37;10.47;;;3.40;87.10;;;;;;5020903;28;20447;-79
2021/03/15 03:17:05;;;;;;;13.03;9.97;;;3.40;86.60;;;;;;5023582;28;20451;-80
2021/03/15 03:19:33;;;;;;;11.17;10.03;;;3.50;85.90;;;;;;5039666;28;20478;-82
2021/03/15 03:22:01;;;;;;;12.43;9.53;;;3.60;85.40;;;;;;5031502;28;20483;-83
2021/03/15 03:24:30;;;;;;;14.30;10.47;;;3.60;85.00;;;;;;5040985;28;20490;-84
2021/03/15 03:26:57;;;;;;;10.63;9.20;;;3.60;85.00;;;;;;5034902;28;20470;-81
2021/03/15 03:29:26;;;;;;;10.17;8.90;;;3.60;85.60;;;;;;5016180;28;20530;-81
2021/03/15 03:31:55;;;;;;;11.73;9.23;;;3.70;87.20;;;;;;5024812;28;20457;-80
2021/03/15 03:34:21;;;;;;;10.50;9.13;;;3.70;85.70;;;;;;5012271;28;20456;-81
2021/03/15 03:36:48;;;;;;;10.40;9.40;;;3.60;86.90;;;;;;5004006;28;21037;-81
2021/03/15 03:39:15;;;;;;;9.63;8.17;;;3.60;88.60;;;;;;5012317;28;20535;-82
2021/03/15 03:41:42;;;;;;;15.70;10.67;;;3.50;89.60;;;;;;5013168;28;20998;-79
2021/03/15 03:44:10;;;;;;;14.20;10.47;;;3.50;90.60;;;;;;5009912;28;20520;-80
2021/03/15 03:46:39;;;;;;;13.07;9.57;;;3.50;90.70;;;;;;5017355;28;20563;-81
2021/03/15 03:49:06;;;;;;;9.80;8.80;;;3.50;91.60;;;;;;5011753;28;20457;-83
2021/03/15 03:51:41;;;;;;;11.67;9.40;;;3.40;91.80;;;;;;5026723;28;20471;-83
2021/03/15 03:54:12;;;;;;;15.60;10.30;;;3.50;91.60;;;;;;5030560;28;20460;-82
2021/03/15 03:56:50;;;;;;;12.67;8.97;;;3.50;91.80;;;;;;5020691;28;20456;-80
2021/03/15 03:59:20;;;;;;;10.40;9.20;;;3.40;91.00;;;;;;5023276;28;20447;-83
2021/03/15 04:01:50;;;;;;;17.67;9.40;;;3.50;91.00;;;;;;5032527;28;20471;-81
2021/03/15 04:04:19;;;;;;;13.13;9.33;;;3.50;90.90;;;;;;5024374;28;20444;-79
2021/03/15 04:06:49;;;;;;;13.53;10.20;;;3.50;91.30;;;;;;5016002;28;20455;-80
2021/03/15 04:09:22;;;;;;;16.90;10.40;;;3.50;91.40;;;;;;5010911;28;21056;-80
2021/03/15 04:11:51;;;;;;;13.03;9.50;;;3.50;91.20;;;;;;5014805;28;20539;-81
2021/03/15 04:14:23;;;;;;;15.10;10.27;;;3.60;91.60;;;;;;5030422;28;20455;-80
2021/03/15 04:16:52;;;;;;;10.37;9.27;;;3.60;91.50;;;;;;5025699;28;20444;-81
2021/03/15 04:19:28;;;;;;;11.53;9.20;;;3.60;91.90;;;;;;5022065;28;20563;-82
2021/03/15 04:22:02;;;;;;;13.40;10.30;;;3.60;91.90;;;;;;5022126;28;20514;-83
2021/03/15 04:24:31;;;;;;;12.20;9.73;;;3.70;91.90;;;;;;5026927;28;20466;-85
2021/03/15 04:27:01;;;;;;;12.77;8.77;;;3.70;91.30;;;;;;5029781;28;20471;-81
2021/03/15 04:29:29;;;;;;;11.80;9.77;;;3.70;90.70;;;;;;5024010;28;20471;-80
2021/03/15 04:31:58;;;;;;;11.90;10.27;;;3.70;90.50;;;;;;5020329;28;20535;-81
2021/03/15 04:34:26;;;;;;;14.73;10.40;;;3.70;90.80;;;;;;5014517;28;20478;-82
2021/03/15 04:36:56;;;;;;;12.23;10.07;;;3.80;90.80;;;;;;5011003;28;20508;-81
2021/03/15 04:39:25;;;;;;;14.13;10.03;;;3.80;90.80;;;;;;5028142;28;20517;-82
2021/03/15 04:41:53;;;;;;;10.97;8.97;;;3.80;90.40;;;;;;5028463;28;20472;-80
2021/03/15 04:44:23;;;;;;;13.20;10.03;;;3.80;90.30;;;;;;5031211;28;20914;-83
2021/03/15 04:46:51;;;;;;;12.43;9.60;;;3.90;90.60;;;;;;5016246;28;20471;-81
2021/03/15 04:49:18;;;;;;;14.20;9.30;;;3.80;90.40;;;;;;5012314;28;20459;-81
2021/03/15 04:51:45;;;;;;;11.63;10.40;;;3.90;90.20;;;;;;5018653;28;20444;-80
2021/03/15 04:54:12;;;;;;;12.63;10.60;;;3.90;90.10;;;;;;5017146;28;20482;-80
2021/03/15 04:56:40;;;;;;;10.27;9.20;;;3.90;90.30;;;;;;5024745;28;20744;-82
2021/03/15 04:59:09;;;;;;;12.80;9.00;;;3.90;90.10;;;;;;5022917;28;20545;-80
2021/03/15 05:01:39;;;;;;;11.23;9.20;;;3.90;90.00;;;;;;5021556;28;20514;-81
2021/03/15 05:04:09;;;;;;;14.27;9.70;;;4.00;90.10;;;;;;5014589;28;20445;-84
2021/03/15 05:06:37;;;;;;;14.87;9.90;;;3.70;89.50;;;;;;5016916;28;20467;-81
2021/03/15 05:09:07;;;;;;;11.80;9.33;;;3.50;90.80;;;;;;5018636;28;20473;-83
2021/03/15 05:11:35;;;;;;;15.77;10.47;;;3.50;91.70;;;;;;5006025;28;20452;-80
2021/03/15 05:14:04;;;;;;;11.67;9.80;;;3.60;91.90;;;;;;5004555;28;20460;-79
2021/03/15 05:16:34;;;;;;;16.40;10.70;;;3.60;91.70;;;;;;5016235;28;20522;-81
2021/03/15 05:19:04;;;;;;;13.10;9.97;;;3.70;91.30;;;;;;5012700;28;20458;-78
2021/03/15 05:21:32;;;;;;;13.23;10.03;;;3.80;90.50;;;;;;5009138;28;20476;-80
2021/03/15 05:24:02;;;;;;;10.97;9.83;;;3.80;90.50;;;;;;5010120;28;21345;-80
2021/03/15 05:26:31;;;;;;;12.77;9.23;;;3.90;90.30;;;;;;5004102;28;21128;-83
2021/03/15 05:28:59;;;;;;;16.30;9.70;;;3.90;89.00;;;;;;5007024;28;20469;-81
2021/03/15 05:31:27;;;;;;;12.70;9.67;;;4.00;89.20;;;;;;5008688;28;20464;-81
2021/03/15 05:33:54;;;;;;;14.43;9.80;;;4.00;89.20;;;;;;5011493;28;20584;-80
2021/03/15 05:36:24;;;;;;;9.27;7.80;;;4.00;88.30;;;;;;5031517;28;20698;-80
2021/03/15 05:38:51;;;;;;;13.67;9.17;;;4.10;86.40;;;;;;5008994;28;20515;-81
2021/03/15 05:41:23;;;;;;;9.80;8.60;;;4.10;85.90;;;;;;5003911;28;20472;-82
2021/03/15 05:43:56;;;;;;;13.33;8.63;;;4.10;85.30;;;;;;5007304;28;20520;-81
2021/03/15 05:46:51;;;;;;;10.53;8.53;;;4.20;85.40;;;;;;5009905;28;20454;-82
2021/03/15 05:49:37;;;;;;;9.10;8.03;;;4.20;84.50;;;;;;5002285;28;20456;-83
2021/03/15 05:52:17;;;;;;;9.97;8.50;;;4.20;83.70;;;;;;5019188;28;20724;-82
2021/03/15 05:55:10;;;;;;;9.73;8.17;;;4.20;82.70;;;;;;5022445;28;20464;-83
2021/03/15 05:58:20;;;;;;;10.30;7.97;;;4.10;81.80;;;;;;5019030;28;20475;-79
2021/03/15 06:01:02;;;;;;;13.80;7.97;;;4.00;81.90;;;;;;4999779;28;20469;-80
2021/03/15 06:03:49;;;;;;;12.60;7.80;;;4.10;82.20;;;;;;5004312;28;20472;-82
2021/03/15 06:06:19;;;;;;;8.17;6.90;;;4.20;81.90;;;;;;4999985;28;20440;-82
2021/03/15 06:08:51;;;;;;;8.07;6.33;;;4.20;81.70;;;;;;5008575;28;20487;-81
2021/03/15 06:11:21;;;;;;;12.67;7.60;;;4.20;80.00;;;;;;5004666;28;20456;-83
2021/03/15 06:13:48;;;;;;;10.03;7.63;;;4.30;79.30;;;;;;5010838;28;20794;-84
2021/03/15 06:16:16;;;;;;;8.80;6.50;;;4.30;79.20;;;;;;5005702;28;20549;-82
2021/03/15 06:18:44;;;;;;;14.17;7.20;;;4.40;79.00;;;;;;5024731;28;20449;-84
2021/03/15 06:21:13;;;;;;;7.60;6.73;;;4.50;77.90;;;;;;5015928;28;20477;-81
2021/03/15 06:23:40;;;;;;;8.20;6.40;;;4.40;77.30;;;;;;5006879;28;21020;-82
2021/03/15 06:26:08;;;;;;;9.87;6.50;;;4.50;77.30;;;;;;5001394;28;20485;-80
2021/03/15 06:28:34;;;;;;;10.30;6.70;;;4.50;76.80;;;;;;4998640;28;20882;-81
2021/03/15 06:31:01;;;;;;;7.73;5.60;;;4.50;76.60;;;;;;5014053;28;20517;-80
2021/03/15 06:33:28;;;;;;;9.23;7.20;;;4.60;76.40;;;;;;5005775;28;20471;-83
2021/03/15 06:35:57;;;;;;;9.30;5.80;;;4.70;76.60;;;;;;4999419;28;21188;-78
2021/03/15 06:38:24;;;;;;;9.30;6.57;;;4.80;75.90;;;;;;5018122;28;20447;-90
2021/03/15 06:40:52;;;;;;;9.50;6.40;;;4.90;76.10;;;;;;5020210;28;20459;-92
2021/03/15 06:43:22;;;;;;;9.40;5.97;;;5.00;75.70;;;;;;5023751;28;20462;-88
2021/03/15 06:48:44;;;;;;;14.10;6.50;;;;;;;;;;5171431;27;20536;-87
2021/03/15 06:51:12;;;;;;;7.33;5.90;;;5.10;75.50;;;;;;5130281;28;20444;-89
2021/03/15 06:56:16;;;;;;;7.23;6.10;;;5.10;74.80;;;;;;5016963;27;21103;-87
2021/03/15 06:58:51;;;;;;;11.90;5.70;;;5.00;74.90;;;;;;5014957;28;20470;-88
2021/03/15 07:01:21;;;;;;;12.80;6.30;;;5.00;75.30;;;;;;5051549;28;20519;-89
2021/03/15 07:03:48;;;;;;;8.07;5.87;;;;;;;;;;4999245;28;20467;-88
2021/03/15 07:06:18;;;;;;;14.80;7.50;;;5.20;75.30;;;;;;5004260;28;20476;-85
2021/03/15 07:08:48;;;;;;;7.70;5.70;;;;;;;;;;4998954;28;20450;-88
2021/03/15 07:11:21;;;;;;;10.10;6.57;;;5.10;75.20;;;;;;5000292;28;20449;-89
2021/03/15 07:13:47;;;;;;;10.90;5.90;;;5.10;75.00;;;;;;5016337;28;20465;-86
2021/03/15 07:16:25;;;;;;;6.33;5.70;;;5.10;75.30;;;;;;5008851;28;20436;-89
2021/03/15 07:18:52;;;;;;;9.87;5.90;;;5.10;75.90;;;;;;5026357;28;20429;-91
2021/03/15 07:21:31;;;;;;;8.50;5.53;;;5.10;75.30;;;;;;5053663;28;20459;-90
2021/03/15 07:24:00;;;;;;;7.00;4.60;;;5.20;75.70;;;;;;4987977;28;20473;-86
2021/03/15 07:26:30;;;;;;;5.80;4.80;;;5.10;75.60;;;;;;4989775;28;20450;-86
2021/03/15 07:29:24;;;;;;;11.07;5.57;;;5.00;76.00;;;;;;4984843;28;20963;-85
2021/03/15 07:31:51;;;;;;;5.87;4.57;;;5.20;76.60;;;;;;5005388;28;20465;-90
2021/03/15 07:34:20;;;;;;;6.60;5.20;;;5.20;76.80;;;;;;4987259;28;20492;-87
2021/03/15 07:36:55;;;;;;;12.80;5.80;;;5.30;76.80;;;;;;4997214;28;20451;-91
2021/03/15 07:39:24;;;;;;;11.77;5.67;;;5.30;77.60;;;;;;5000933;28;20463;-91
2021/03/15 07:41:56;;;;;;;12.33;5.67;;;5.20;77.70;;;;;;4997211;28;20461;-87
2021/03/15 07:44:28;;;;;;;6.77;5.53;;;5.20;76.60;;;;;;4994145;28;20483;-85
2021/03/15 07:47:03;;;;;;;9.13;5.83;;;5.20;77.60;;;;;;5001128;28;20451;-86
2021/03/15 07:49:32;;;;;;;12.50;11.23;;;5.40;77.90;;;;;;4993289;28;20514;-88
2021/03/15 07:52:02;;;;;;;6.20;5.60;;;5.30;77.70;;;;;;5016220;28;20438;-88
2021/03/15 07:54:34;;;;;;;6.20;4.60;;;5.40;78.10;;;;;;5022562;28;20474;-90
2021/03/15 07:57:18;;;;;;;7.30;4.83;;;5.40;77.60;;;;;;5006492;28;20478;-85
2021/03/15 07:59:48;;;;;;;7.30;5.30;;;5.70;78.30;;;;;;5007086;28;20476;-85
2021/03/15 08:02:17;;;;;;;13.37;6.13;;;;;;;;;;5015475;28;21549;-80
2021/03/15 08:06:30;;;;;;;4.90;4.40;;;5.60;76.60;;;;;;5093768;27;20585;-85
2021/03/15 08:08:57;;;;;;;7.33;5.00;;;;;;;;;;5076446;28;20520;-85
2021/03/15 08:11:24;;;;;;;8.17;4.73;;;5.40;77.80;;;;;;5081588;28;20574;-85
2021/03/15 08:13:57;;;;;;;6.43;4.40;;;5.20;77.80;;;;;;5084121;28;20892;-85
2021/03/15 08:16:24;;;;;;;4.60;4.20;;;5.10;77.20;;;;;;5078772;28;20959;-82
2021/03/15 08:18:52;;;;;;;4.03;3.73;;;5.20;77.90;;;;;;5081045;28;20493;-82
2021/03/15 08:21:22;;;;;;;7.27;4.40;;;;;;;;;;5080758;28;20481;-85
2021/03/15 08:23:52;;;;;;;4.60;3.80;;;5.20;77.60;;;;;;5096742;28;20470;-82
2021/03/15 08:26:21;;;;;;;4.20;3.73;;;5.10;78.40;;;;;;5079734;28;20484;-83
2021/03/15 08:28:50;;;;;;;4.97;3.57;;;5.20;78.60;;;;;;5077093;28;20948;-84
2021/03/15 08:31:24;;;;;;;4.77;3.47;;;5.30;78.60;;;;;;5080069;28;20458;-85
2021/03/15 08:33:53;;;;;;;2.70;2.50;;;5.20;78.50;;;;;;5087944;28;20449;-85
2021/03/15 08:36:20;;;;;;;4.33;3.00;;;5.10;78.10;;;;;;5085203;28;20450;-83
2021/03/15 08:38:47;;;;;;;3.60;3.23;;;5.30;79.20;;;;;;5080391;28;20459;-84
2021/03/15 08:41:22;;;;;;;4.30;3.60;;;5.30;79.70;;;;;;5079749;28;20468;-83
2021/03/15 08:43:49;;;;;;;7.63;3.00;;;5.20;80.00;;;;;;5080352;28;20456;-84
2021/03/15 08:46:19;;;;;;;5.67;2.73;;;5.30;79.00;;;;;;5084028;28;20553;-85
2021/03/15 08:49:05;;;;;;;6.07;3.97;;;5.30;79.20;;;;;;5080485;28;20522;-86
2021/03/15 08:51:48;;;;;;;3.93;2.80;;;5.30;79.60;;;;;;5078327;28;20461;-86
2021/03/15 08:54:40;;;;;;;2.50;2.30;;;5.00;80.30;;;;;;5078941;28;20461;-82
2021/03/15 08:57:28;;;;;;;2.90;2.20;;;5.00;81.10;;;;;;5071435;28;20458;-84
2021/03/15 09:00:01;;;;;;;3.80;2.83;;;5.10;81.30;;;;;;5090027;28;20442;-83
2021/03/15 09:02:39;;;;;;;3.03;2.67;;;5.20;81.60;;;;;;5082055;28;20465;-86
2021/03/15 09:05:24;;;;;;;2.87;2.60;;;5.40;81.80;;;;;;5082230;28;20459;-84
2021/03/15 09:07:52;;;;;;;4.97;2.83;;;5.30;81.30;;;;;;5089651;28;20442;-86
2021/03/15 09:10:48;;;;;;;5.90;3.40;;;5.20;82.10;;;;;;5083691;28;20473;-87
2021/03/15 09:13:24;;;;;;;4.20;2.47;;;5.30;81.50;;;;;;5076994;28;20466;-83
2021/03/15 09:16:02;;;;;;;4.20;3.00;;;5.50;80.10;;;;;;5075988;28;20454;-84
2021/03/15 09:18:50;;;;;;;5.53;3.63;;;;;;;;;;5063069;28;20518;-84
2021/03/15 09:21:52;;;;;;;5.27;3.20;;;6.00;81.20;;;;;;5068228;28;20443;-83
2021/03/15 09:24:42;;;;;;;4.78;3.70;;;6.10;79.40;;;;;;5054071;28;20490;-81
2021/03/15 09:27:11;;;;;;;3.67;3.23;;;6.00;78.70;;;;;;5057545;28;20452;-84
2021/03/15 09:29:39;;;;;;;4.60;3.27;;;6.10;78.90;;;;;;5065544;28;20826;-82
2021/03/15 09:32:09;;;;;;;5.33;3.17;;;6.10;78.80;;;;;;5072081;28;20444;-83
2021/03/15 09:34:36;;;;;;;4.80;3.53;;;5.90;79.50;;;;;;5064413;28;20930;-79
2021/03/15 09:37:05;;;;;;;5.63;4.10;;;5.90;79.90;;;;;;5060808;28;20445;-83
2021/03/15 09:39:33;;;;;;;3.90;3.50;;;6.00;79.90;;;;;;5058906;28;20460;-85
2021/03/15 09:42:01;;;;;;;5.50;3.33;;;6.10;80.30;;;;;;5059347;28;20461;-82
2021/03/15 09:44:30;;;;;;;3.83;3.00;;;6.00;79.40;;;;;;5057599;28;20538;-85
2021/03/15 09:47:00;;;;;;;3.53;2.90;;;;;;;;;;5062292;28;20456;-82
2021/03/15 09:49:34;;;;;;;2.67;2.33;;;6.00;78.60;;;;;;5060692;28;20947;-83
2021/03/15 09:52:16;;;;;;;4.25;3.60;;;6.10;79.10;;;;;;5063783;28;20455;-80
2021/03/15 09:54:48;;;;;;;3.83;3.00;;;6.20;78.80;;;;;;5064408;28;20197;-82
2021/03/15 09:57:31;;;;;;;4.63;3.40;;;6.20;78.60;;;;;;5064387;28;20461;-82
2021/03/15 10:06:30;;;;;;;5.60;3.00;;;6.40;79.10;;;;;;5058988;28;20546;-81
2021/03/15 10:12:07;;;;;;;3.27;2.90;;;6.40;78.30;;;;;;5062630;28;20461;-82
2021/03/15 10:14:35;;;;;;;2.90;2.70;;;6.60;77.60;;;;;;5065141;28;20982;-81
2021/03/15 10:17:03;;;;;;;2.83;2.53;;;6.30;77.80;;;;;;5056023;28;20453;-82
2021/03/15 10:19:35;;;;;;;2.93;2.63;;;6.30;77.60;;;;;;5062486;28;20463;-82
2021/03/15 10:22:12;;;;;;;3.07;2.17;;;6.10;78.20;;;;;;5066645;28;20452;-82
2021/03/15 10:24:40;;;;;;;2.53;2.10;;;6.00;78.60;;;;;;5066541;28;20480;-82
2021/03/15 10:27:09;;;;;;;2.90;2.27;;;6.10;79.00;;;;;;5069627;28;20462;-82
2021/03/15 10:29:40;;;;;;;3.10;2.90;;;6.20;79.40;;;;;;5069429;28;20435;-83
2021/03/15 10:32:08;;;;;;;3.10;2.80;;;6.10;80.10;;;;;;5067385;28;20454;-85
2021/03/15 10:34:37;;;;;;;3.93;2.63;;;6.10;80.10;;;;;;5055901;28;20451;-79
2021/03/15 10:37:03;;;;;;;2.50;2.30;;;5.90;80.50;;;;;;5051242;28;20995;-79
2021/03/15 10:39:30;;;;;;;2.20;2.00;;;5.90;80.30;;;;;;5052755;28;20452;-78
2021/03/15 10:41:59;;;;;;;2.53;2.33;;;5.80;79.20;;;;;;5045975;28;20820;-79
2021/03/15 10:44:27;;;;;;;2.70;2.50;;;5.70;80.50;;;;;;5061763;28;20447;-83
2021/03/15 10:46:55;;;;;;;2.53;1.93;;;5.60;80.20;;;;;;5057586;28;20456;-82
2021/03/15 10:49:32;;;;;;;1.97;1.87;;;5.60;81.30;;;;;;5055337;28;20456;-81
2021/03/15 10:52:04;;;;;;;3.73;2.00;;;5.60;81.60;;;;;;5057973;28;20514;-81
2021/03/15 10:54:33;;;;;;;2.40;1.73;;;5.60;82.00;;;;;;5061966;28;20443;-81
2021/03/15 10:57:17;;;;;;;1.80;1.70;;;5.50;81.50;;;;;;5053737;28;20210;-81
2021/03/15 10:59:45;;;;;;;1.73;1.57;;;;;;;;;;5055606;28;20456;-83
2021/03/15 11:02:20;;;;;;;2.57;1.90;;;5.40;83.00;;;;;;5060432;28;20444;-86
2021/03/15 11:04:53;;;;;;;1.40;1.30;;;5.30;82.40;;;;;;5058068;28;20477;-85
2021/03/15 11:07:42;;;;;;;1.70;1.60;;;5.40;82.20;;;;;;5059585;28;20496;-82
2021/03/15 11:10:44;;;;;;;2.77;1.90;;;5.40;83.30;;;;;;5065415;28;20482;-81
2021/03/15 11:13:58;;;;;;;3.87;1.93;;;5.50;82.70;;;;;;5052348;28;20538;-79
2021/03/15 11:16:27;;;;;;;2.20;2.00;;;5.50;81.90;;;;;;5052186;28;20465;-84
2021/03/15 11:19:07;;;;;;;1.70;1.60;;;5.60;81.10;;;;;;5053896;28;20445;-81
2021/03/15 11:21:36;;;;;;;2.00;1.90;;;5.50;80.10;;;;;;5056728;28;20496;-82
2021/03/15 11:24:05;;;;;;;2.20;1.93;;;5.30;80.90;;;;;;5072995;28;21016;-83
2021/03/15 11:26:44;;;;;;;1.67;1.57;;;5.30;82.30;;;;;;5067377;28;20470;-83
2021/03/15 11:29:14;;;;;;;2.10;2.00;;;5.60;81.60;;;;;;5059903;28;20456;-85
2021/03/15 11:31:57;;;;;;;1.97;1.77;;;6.00;79.30;;;;;;5061990;28;20502;-83
2021/03/15 11:34:34;;;;;;;1.90;1.80;;;6.20;76.30;;;;;;5048964;28;20471;-78
2021/03/15 11:37:08;;;;;;;2.22;2.10;;;6.50;76.00;;;;;;5056635;28;20515;-86
2021/03/15 11:39:40;;;;;;;2.50;2.30;;;;;;;;;;5055521;28;20192;-85
2021/03/15 11:42:23;;;;;;;2.40;2.20;;;6.50;76.60;;;;;;5054513;28;20457;-85
2021/03/15 11:44:50;;;;;;;1.87;1.77;;;6.30;76.20;;;;;;5054822;28;20469;-85
2021/03/15 11:47:19;;;;;;;3.03;1.90;;;6.10;76.30;;;;;;5055914;28;20455;-85
2021/03/15 11:49:45;;;;;;;1.73;1.63;;;;;;;;;;5057848;28;20461;-78
2021/03/15 11:52:22;;;;;;;2.65;2.45;;;6.20;76.60;;;;;;5059101;28;20439;-81
2021/03/15 11:54:51;;;;;;;1.90;1.80;;;6.40;76.50;;;;;;5067231;28;20195;-82
2021/03/15 11:57:18;;;;;;;2.30;1.97;;;6.30;76.00;;;;;;5067586;28;20449;-82
2021/03/15 11:59:45;;;;;;;2.20;2.03;;;6.00;76.20;;;;;;5061213;28;20482;-81
2021/03/15 12:02:12;;;;;;;2.53;2.30;;;5.70;81.20;;;;;;5065726;28;20563;-83
2021/03/15 12:04:40;;;;;;;2.97;2.60;;;5.80;81.20;;;;;;5059233;28;20482;-84
2021/03/15 12:07:11;;;;;;;2.63;2.43;;;6.00;79.80;;;;;;5059411;28;20475;-83
2021/03/15 12:09:44;;;;;;;3.00;2.70;;;6.00;78.10;;;;;;5058239;28;20488;-82
2021/03/15 12:12:13;;;;;;;2.93;2.57;;;;;;;;;;5062407;28;20463;-82
2021/03/15 12:14:56;;;;;;;2.70;2.50;;;6.10;78.80;;;;;;5055397;28;20451;-82
2021/03/15 12:17:24;;;;;;;2.93;2.33;;;6.10;78.90;;;;;;5055856;28;20524;-82
2021/03/15 12:19:51;;;;;;;2.40;2.20;;;6.10;79.80;;;;;;5059502;28;20454;-83
2021/03/15 12:22:20;;;;;;;2.83;2.37;;;6.10;79.80;;;;;;5057441;28;20460;-84
2021/03/15 12:24:47;;;;;;;2.30;2.10;;;5.90;78.40;;;;;;5058877;28;20463;-83
2021/03/15 12:27:23;;;;;;;2.97;2.63;;;6.00;79.20;;;;;;5062413;28;20454;-84
2021/03/15 12:29:51;;;;;;;2.80;2.60;;;6.50;78.40;;;;;;5058351;28;20564;-83
2021/03/15 12:32:19;;;;;;;2.60;2.40;;;6.80;76.40;;;;;;5063456;28;20469;-85
2021/03/15 12:34:46;;;;;;;2.57;2.37;;;6.70;74.40;;;;;;5063731;28;20470;-82
2021/03/15 12:37:15;;;;;;;2.73;2.53;;;;;;;;;;5070927;28;20476;-83
2021/03/15 12:39:43;;;;;;;2.60;2.40;;;7.10;74.70;;;;;;5069344;28;20477;-83
2021/03/15 12:42:10;;;;;;;2.30;2.20;;;6.90;73.50;;;;;;5060307;28;20446;-82
2021/03/15 12:44:40;;;;;;;2.00;1.90;;;6.60;72.90;;;;;;5058244;28;20520;-80
2021/03/15 12:47:07;;;;;;;1.87;1.77;;;6.70;73.40;;;;;;5061311;28;20448;-82
2021/03/15 12:49:42;;;;;;;2.77;2.10;;;6.80;74.10;;;;;;5055839;28;20461;-81
2021/03/15 12:52:12;;;;;;;2.80;2.60;;;6.80;73.80;;;;;;5055365;28;20530;-82
2021/03/15 12:54:39;;;;;;;2.10;2.00;;;;;;;;;;5062890;28;20447;-85
2021/03/15 12:57:07;;;;;;;2.30;2.10;;;6.60;75.30;;;;;;5063507;28;20546;-80
2021/03/15 12:59:36;;;;;;;2.63;2.43;;;;;;;;;;5059141;28;20472;-83
2021/03/15 13:02:05;;;;;;;2.07;1.50;;;6.70;75.60;;;;;;5062603;28;20466;-83
2021/03/15 13:04:31;;;;;;;2.00;1.90;;;6.90;76.10;;;;;;5066727;28;20465;-79
2021/03/15 13:07:01;;;;;;;2.30;2.10;;;6.90;75.60;;;;;;5064983;28;20471;-83
2021/03/15 13:09:37;;;;;;;1.83;1.73;;;6.80;73.70;;;;;;5060672;28;20459;-83
2021/03/15 13:12:05;;;;;;;2.60;1.77;;;6.70;73.50;;;;;;5058604;28;20517;-86
2021/03/15 13:14:34;;;;;;;2.37;2.17;;;6.70;73.80;;;;;;5064801;28;20896;-86
2021/03/15 13:17:23;;;;;;;2.30;2.20;;;7.40;71.90;;;;;;5072565;28;20459;-87
2021/03/15 13:19:50;;;;;;;2.20;2.00;;;7.20;71.80;;;;;;5066080;28;20474;-87
2021/03/15 13:22:20;;;;;;;1.90;1.37;;;7.10;70.30;;;;;;5067400;28;21002;-86
2021/03/15 13:25:23;;;;;;;1.53;1.43;;;7.30;71.00;;;;;;5066773;28;20472;-87
2021/03/15 13:28:13;;;;;;;1.40;1.30;;;7.20;70.80;;;;;;5037459;28;20446;-87
2021/03/15 13:30:41;;;;;;;1.23;1.13;;;7.10;71.80;;;;;;5056003;28;20948;-88
2021/03/15 13:33:11;;;;;;;1.97;1.00;;;6.60;75.20;;;;;;5050975;28;20202;-83
2021/03/15 13:35:38;;;;;;;0.80;0.80;;;6.50;76.70;;;;;;5058381;28;20454;-87
2021/03/15 13:46:41;;;;;;;0.93;0.80;;;6.10;75.10;;;;;;5060706;28;20501;-86
2021/03/15 13:49:10;;;;;;;1.40;1.30;;;6.30;73.60;;;;;;5069630;28;20455;-85
2021/03/15 13:51:37;;;;;;;1.37;1.27;;;6.30;74.60;;;;;;5058443;28;20459;-86